Time;durP1;ratioP1;P1;durP2;ratioP2;P2;SDS_P1;SDS_P2;PMS_P1;PMS_P2;Temp;Humidity;BMP_temperature;BMP_pressure;BME280_temperature;BME280_humidity;BME280_pressure;Samples;Min_cycle;Max_cycle;Signal;HPM_P1;HPM_P2
2023/12/09 00:02:03;;;;;;;12.70;7.70;;;;;;;5.90;100.00;100866.50;108055;1277;22096;-68
2023/12/09 00:04:29;;;;;;;14.70;7.20;;;;;;;5.89;100.00;100868.07;107376;1284;1002552;-68
2023/12/09 00:06:54;;;;;;;12.10;7.00;;;;;;;5.90;100.00;100870.52;107970;1288;24089;-68
2023/12/09 00:09:20;;;;;;;16.40;7.90;;;;;;;5.90;100.00;100870.01;107986;1284;21993;-64
2023/12/09 00:11:46;;;;;;;11.80;6.70;;;;;;;5.89;100.00;100874.16;107989;1283;21997;-68
2023/12/09 00:14:11;;;;;;;11.30;6.70;;;;;;;5.88;100.00;100878.67;108015;1286;21959;-69
2023/12/09 00:16:37;;;;;;;14.80;7.40;;;;;;;5.88;100.00;100882.50;107978;1280;22000;-68
2023/12/09 00:19:03;;;;;;;13.00;6.80;;;;;;;5.87;100.00;100884.23;107910;1288;24179;-66
2023/12/09 00:21:29;;;;;;;13.90;7.40;;;;;;;5.88;100.00;100884.94;108046;1288;22006;-68
2023/12/09 00:23:54;;;;;;;9.70;5.40;;;;;;;5.87;100.00;100879.70;107976;1288;22108;-64
2023/12/09 00:26:20;;;;;;;11.10;6.60;;;;;;;5.84;100.00;100880.70;108011;1288;21991;-68
2023/12/09 00:28:46;;;;;;;11.90;6.00;;;;;;;5.83;100.00;100882.23;108000;1286;23755;-64
2023/12/09 00:31:13;;;;;;;12.30;6.20;;;;;;;5.82;100.00;100884.14;108037;1288;21999;-70
2023/12/09 00:33:41;;;;;;;11.80;6.90;;;;;;;5.80;100.00;100886.74;107968;1283;22030;-67
2023/12/09 00:36:07;;;;;;;14.70;7.60;;;;;;;5.79;100.00;100884.98;108030;1284;21994;-70
2023/12/09 00:38:33;;;;;;;13.70;8.00;;;;;;;5.80;100.00;100885.69;108044;1283;21989;-68
2023/12/09 00:40:59;;;;;;;17.80;8.70;;;;;;;5.81;100.00;100882.05;108057;1288;22004;-68
2023/12/09 00:43:25;;;;;;;13.40;8.30;;;;;;;5.81;100.00;100880.48;107934;1283;22770;-63
2023/12/09 00:45:51;;;;;;;16.30;10.10;;;;;;;5.83;100.00;100881.55;108017;1288;21997;-68
2023/12/09 00:48:16;;;;;;;18.00;9.80;;;;;;;5.84;100.00;100879.65;108001;1288;21996;-69
2023/12/09 00:50:42;;;;;;;16.50;9.30;;;;;;;5.84;100.00;100879.48;108014;1288;21959;-68
2023/12/09 00:53:07;;;;;;;14.00;9.20;;;;;;;5.83;100.00;100875.63;108029;1288;21984;-68
2023/12/09 00:55:33;;;;;;;15.60;9.50;;;;;;;5.81;100.00;100878.04;108025;1288;21986;-68
2023/12/09 00:57:59;;;;;;;17.80;9.10;;;;;;;5.82;100.00;100879.28;108030;1288;23654;-64
2023/12/09 01:00:25;;;;;;;13.00;9.00;;;;;;;5.84;100.00;100883.14;108048;1277;23655;-68
2023/12/09 01:02:51;;;;;;;14.50;8.80;;;;;;;5.84;100.00;100881.21;107341;1286;1003429;-64
2023/12/09 01:05:17;;;;;;;13.30;9.40;;;;;;;5.84;100.00;100881.40;108037;1288;22011;-68
2023/12/09 01:07:43;;;;;;;16.10;9.70;;;;;;;5.83;100.00;100884.17;107995;1288;24529;-68
2023/12/09 01:10:08;;;;;;;17.70;9.30;;;;;;;5.83;100.00;100886.42;108026;1288;21985;-64
2023/12/09 01:12:34;;;;;;;16.60;9.50;;;;;;;5.83;100.00;100879.98;107987;1288;21998;-64
2023/12/09 01:15:00;;;;;;;16.80;9.10;;;;;;;5.81;100.00;100865.86;107999;1288;22246;-65
2023/12/09 01:17:25;;;;;;;15.60;9.40;;;;;;;5.78;100.00;100854.31;108012;1288;21992;-63
2023/12/09 01:19:51;;;;;;;17.40;8.80;;;;;;;5.75;100.00;100858.27;108007;1288;22034;-65
2023/12/09 01:22:16;;;;;;;14.60;8.80;;;;;;;5.72;100.00;100863.11;107996;1288;21998;-63
2023/12/09 01:24:42;;;;;;;15.30;9.70;;;;;;;5.72;100.00;100861.02;108008;1288;22001;-63
2023/12/09 01:27:08;;;;;;;15.40;9.40;;;;;;;5.73;100.00;100853.38;108002;1286;22781;-64
2023/12/09 01:29:36;;;;;;;15.70;9.20;;;;;;;5.71;100.00;100843.77;107968;1277;21997;-68
2023/12/09 01:32:02;;;;;;;14.60;9.10;;;;;;;5.70;100.00;100839.21;108022;1288;21977;-68
2023/12/09 01:34:27;;;;;;;16.20;9.30;;;;;;;5.69;100.00;100842.00;107292;1288;1002949;-69
2023/12/09 01:36:54;;;;;;;15.20;9.40;;;;;;;5.67;100.00;100844.92;108167;1283;23043;-63
2023/12/09 01:39:19;;;;;;;15.90;8.80;;;;;;;5.68;100.00;100848.59;107984;1288;22245;-69
2023/12/09 01:41:45;;;;;;;14.10;8.70;;;;;;;5.68;100.00;100846.49;108017;1288;22005;-68
2023/12/09 01:44:10;;;;;;;18.20;9.80;;;;;;;5.66;100.00;100843.34;107250;1288;1002652;-63
2023/12/09 01:46:36;;;;;;;17.40;9.80;;;;;;;5.67;100.00;100843.52;107257;1288;1002747;-68
2023/12/09 01:49:02;;;;;;;17.40;9.80;;;;;;;5.68;100.00;100845.45;107180;1288;1002421;-63
2023/12/09 01:51:27;;;;;;;16.70;10.20;;;;;;;5.69;100.00;100846.18;107300;1288;1002628;-64
2023/12/09 01:53:53;;;;;;;15.10;9.90;;;;;;;5.69;100.00;100846.88;107916;1283;21990;-68
2023/12/09 01:56:19;;;;;;;15.90;9.20;;;;;;;5.71;100.00;100848.46;107879;1288;22718;-64
2023/12/09 01:58:44;;;;;;;17.80;9.70;;;;;;;5.70;100.00;100850.52;107718;1286;21999;-69
2023/12/09 02:01:10;;;;;;;16.50;10.50;;;;;;;5.69;100.00;100853.98;107852;1288;22063;-64
2023/12/09 02:03:36;;;;;;;18.30;10.30;;;;;;;5.70;100.00;100862.36;107980;1288;21994;-63
2023/12/09 02:06:01;;;;;;;17.40;10.20;;;;;;;5.70;100.00;100864.11;107699;1286;22007;-63
2023/12/09 02:08:27;;;;;;;14.90;9.60;;;;;;;5.70;100.00;100862.20;108046;1288;22003;-66
2023/12/09 02:10:59;;;;;;;16.20;10.40;;;;;;;5.70;100.00;100860.11;108015;1288;22031;-69
2023/12/09 02:13:29;;;;;;;16.70;9.60;;;;;;;5.71;100.00;100858.57;107924;1288;23718;-63
2023/12/09 02:15:58;;;;;;;18.10;9.50;;;;;;;5.71;100.00;100857.70;108025;1286;21994;-68
2023/12/09 02:18:24;;;;;;;22.30;11.80;;;;;;;5.73;100.00;100855.64;107948;1288;21988;-68
2023/12/09 02:20:49;;;;;;;16.10;10.00;;;;;;;5.72;100.00;100858.05;107920;1283;23863;-68
2023/12/09 02:23:15;;;;;;;15.60;10.30;;;;;;;5.68;100.00;100855.73;108075;1288;21994;-68
2023/12/09 02:25:41;;;;;;;16.80;10.30;;;;;;;5.65;100.00;100858.48;108081;1277;22001;-64
2023/12/09 02:28:27;;;;;;;19.20;11.80;;;;;;;5.62;100.00;100860.35;107861;1283;22625;-68
2023/12/09 02:31:14;;;;;;;23.50;11.20;;;;;;;5.61;100.00;100859.11;108037;1286;21994;-64
2023/12/09 02:33:40;;;;;;;20.10;10.70;;;;;;;5.64;100.00;100859.50;107254;1277;1002390;-68
2023/12/09 02:36:06;;;;;;;19.70;11.80;;;;;;;5.67;100.00;100865.30;107888;1288;21989;-68
2023/12/09 02:38:31;;;;;;;19.50;12.50;;;;;;;5.68;100.00;100863.04;107983;1288;22011;-63
2023/12/09 02:40:57;;;;;;;22.80;12.40;;;;;;;5.68;100.00;100865.83;107910;1288;21989;-65
2023/12/09 02:43:23;;;;;;;19.40;11.70;;;;;;;5.67;100.00;100865.11;108032;1277;21998;-63
2023/12/09 02:45:48;;;;;;;17.10;11.20;;;;;;;5.68;100.00;100865.14;108058;1288;22457;-63
2023/12/09 02:48:14;;;;;;;18.40;11.40;;;;;;;5.68;100.00;100862.88;107991;1277;21977;-63
2023/12/09 02:50:40;;;;;;;16.60;11.50;;;;;;;5.68;100.00;100862.17;108070;1286;21989;-67
2023/12/09 02:53:05;;;;;;;18.00;10.60;;;;;;;5.69;100.00;100859.41;107146;1288;1003214;-63
2023/12/09 02:55:31;;;;;;;18.60;11.20;;;;;;;5.67;100.00;100855.90;107280;1288;1003037;-63
2023/12/09 02:57:56;;;;;;;17.90;11.90;;;;;;;5.65;100.00;100859.34;107971;1275;21987;-64
2023/12/09 03:00:22;;;;;;;19.40;11.60;;;;;;;5.64;100.00;100859.69;107981;1288;21992;-64
2023/12/09 03:02:47;;;;;;;15.90;10.40;;;;;;;5.64;100.00;100860.89;107346;1288;1002445;-69
2023/12/09 03:05:13;;;;;;;16.20;10.90;;;;;;;5.63;100.00;100862.27;108034;1287;22027;-68
2023/12/09 03:07:39;;;;;;;16.90;9.80;;;;;;;5.62;100.00;100868.34;108052;1283;24334;-63
2023/12/09 03:10:05;;;;;;;16.00;9.90;;;;;;;5.61;100.00;100867.63;108004;1277;21997;-66
2023/12/09 03:12:31;;;;;;;19.70;11.40;;;;;;;5.60;100.00;100867.79;108102;1288;22006;-69
2023/12/09 03:14:57;;;;;;;21.60;11.00;;;;;;;5.59;100.00;100865.69;108023;1282;23728;-69
2023/12/09 03:17:24;;;;;;;17.60;11.60;;;;;;;5.57;100.00;100858.69;107238;1288;1002461;-63
2023/12/09 03:19:50;;;;;;;18.90;10.90;;;;;;;5.57;100.00;100855.73;108019;1283;21989;-63
2023/12/09 03:22:15;;;;;;;16.60;10.10;;;;;;;5.55;100.00;100859.35;108081;1288;22030;-63
2023/12/09 03:24:44;;;;;;;18.60;10.40;;;;;;;5.53;100.00;100862.80;108073;1288;21997;-63
2023/12/09 03:27:09;;;;;;;19.40;10.80;;;;;;;5.55;100.00;100853.25;108034;1288;22043;-69
2023/12/09 03:29:36;;;;;;;17.20;11.10;;;;;;;5.55;100.00;100848.39;108075;1278;21990;-68
2023/12/09 03:32:01;;;;;;;13.80;9.80;;;;;;;5.53;100.00;100848.70;108030;1288;22039;-64
2023/12/09 03:34:27;;;;;;;18.20;11.20;;;;;;;5.51;100.00;100851.30;108007;1288;21990;-68
2023/12/09 03:36:52;;;;;;;16.10;10.20;;;;;;;5.52;100.00;100852.17;107993;1288;23862;-68
2023/12/09 03:39:18;;;;;;;15.90;9.40;;;;;;;5.55;100.00;100854.46;108064;1282;22682;-67
2023/12/09 03:41:43;;;;;;;17.10;9.50;;;;;;;5.56;100.00;100851.88;108011;1288;21995;-68
2023/12/09 03:44:09;;;;;;;15.20;9.50;;;;;;;5.55;100.00;100850.13;108005;1285;23641;-63
2023/12/09 03:46:34;;;;;;;16.30;10.10;;;;;;;5.56;100.00;100847.17;107268;1277;1002382;-69
2023/12/09 03:49:00;;;;;;;17.10;10.00;;;;;;;5.55;100.00;100849.42;107277;1288;1003500;-63
2023/12/09 03:51:26;;;;;;;17.70;9.30;;;;;;;5.53;100.00;100854.95;108010;1277;22460;-68
2023/12/09 03:53:51;;;;;;;16.30;9.60;;;;;;;5.53;100.00;100854.79;108066;1288;23870;-69
2023/12/09 03:56:17;;;;;;;16.70;9.40;;;;;;;5.54;100.00;100860.55;107981;1288;22027;-69
2023/12/09 03:58:43;;;;;;;18.30;8.70;;;;;;;5.57;100.00;100855.54;108049;1277;21989;-64
2023/12/09 04:01:09;;;;;;;15.70;9.30;;;;;;;5.64;100.00;100855.85;108044;1288;21989;-70
2023/12/09 04:03:34;;;;;;;18.20;9.40;;;;;;;5.66;100.00;100850.48;108126;1287;21989;-63
2023/12/09 04:06:02;;;;;;;13.90;9.00;;;;;;;5.62;100.00;100844.67;107993;1288;22010;-63
2023/12/09 04:08:28;;;;;;;14.00;9.20;;;;;;;5.60;100.00;100844.65;107155;1280;1002452;-69
2023/12/09 04:10:54;;;;;;;15.70;8.40;;;;;;;5.59;100.00;100842.70;108099;1282;22455;-63
2023/12/09 04:13:22;;;;;;;20.90;8.40;;;;;;;5.58;100.00;100837.81;108079;1288;21990;-68
2023/12/09 04:15:48;;;;;;;20.70;9.20;;;;;;;5.62;100.00;100837.36;108062;1288;22005;-64
2023/12/09 04:18:14;;;;;;;13.10;7.80;;;;;;;5.78;100.00;100834.11;108020;1288;23697;-63
2023/12/09 04:20:39;;;;;;;23.00;9.00;;;;;;;5.85;100.00;100828.11;108016;1282;22026;-62
2023/12/09 04:23:05;;;;;;;15.20;9.10;;;;;;;5.87;100.00;100828.31;107923;1288;22060;-62
2023/12/09 04:25:31;;;;;;;21.50;8.50;;;;;;;5.88;100.00;100831.63;107965;1277;21987;-64
2023/12/09 04:27:56;;;;;;;15.10;8.10;;;;;;;5.92;100.00;100836.58;108022;1288;22013;-70
2023/12/09 04:30:22;;;;;;;16.60;8.20;;;;;;;5.95;100.00;100841.67;108029;1282;21999;-70
2023/12/09 04:32:48;;;;;;;15.20;7.70;;;;;;;5.99;100.00;100846.44;108020;1288;23238;-70
2023/12/09 04:35:13;;;;;;;17.10;7.70;;;;;;;5.99;100.00;100844.85;108004;1282;21995;-62
2023/12/09 04:37:39;;;;;;;17.70;7.80;;;;;;;5.98;100.00;100839.44;107996;1288;22830;-63
2023/12/09 04:40:09;;;;;;;17.50;8.10;;;;;;;6.00;100.00;100842.28;107993;1288;21998;-61
2023/12/09 04:42:34;;;;;;;17.40;8.60;;;;;;;6.02;100.00;100846.14;107892;1286;22004;-73
2023/12/09 04:45:00;;;;;;;14.70;8.10;;;;;;;6.01;100.00;100848.57;107843;1277;21992;-62
2023/12/09 04:47:26;;;;;;;20.00;8.40;;;;;;;6.04;100.00;100851.23;108008;1288;22068;-67
2023/12/09 04:49:51;;;;;;;16.60;7.90;;;;;;;6.09;100.00;100854.44;107990;1288;21995;-72
2023/12/09 04:52:17;;;;;;;16.00;8.40;;;;;;;6.10;100.00;100861.59;108059;1282;21990;-61
2023/12/09 04:54:42;;;;;;;14.60;7.60;;;;;;;6.08;100.00;100863.48;108020;1288;21985;-61
2023/12/09 04:57:08;;;;;;;16.30;7.80;;;;;;;6.04;100.00;100867.95;107880;1288;21997;-62
2023/12/09 04:59:33;;;;;;;14.80;7.60;;;;;;;6.01;100.00;100876.77;107992;1288;22002;-71
2023/12/09 05:01:59;;;;;;;15.90;8.20;;;;;;;5.96;100.00;100881.23;108030;1288;21999;-72
2023/12/09 05:04:24;;;;;;;14.20;8.40;;;;;;;5.96;100.00;100884.54;108052;1288;23055;-62
2023/12/09 05:06:50;;;;;;;14.80;8.30;;;;;;;5.93;100.00;100890.59;108026;1288;22035;-62
2023/12/09 05:09:15;;;;;;;10.50;7.40;;;;;;;5.83;100.00;100892.70;108009;1287;22029;-70
2023/12/09 05:11:41;;;;;;;12.70;8.30;;;;;;;5.75;100.00;100897.96;107866;1288;21995;-62
2023/12/09 05:14:07;;;;;;;10.60;7.00;;;;;;;5.70;100.00;100903.98;108026;1283;21977;-63
2023/12/09 05:16:32;;;;;;;14.00;8.10;;;;;;;5.63;100.00;100905.10;108045;1288;21986;-67
2023/12/09 05:18:58;;;;;;;13.30;8.60;;;;;;;5.58;100.00;100903.44;108029;1286;21988;-63
2023/12/09 05:21:24;;;;;;;15.00;8.60;;;;;;;5.52;100.00;100903.01;107964;1288;22070;-62
2023/12/09 05:23:51;;;;;;;13.90;8.50;;;;;;;5.51;100.00;100903.49;108051;1288;22739;-63
2023/12/09 05:26:22;;;;;;;16.30;9.10;;;;;;;5.49;100.00;100914.80;108091;1277;21991;-63
2023/12/09 05:28:47;;;;;;;;;;;;;;;5.47;100.00;100918.59;108069;1283;23184;-63
2023/12/09 05:31:13;;;;;;;15.00;7.50;;;;;;;5.45;100.00;100919.95;108018;1277;22028;-63
2023/12/09 05:33:43;;;;;;;14.20;7.70;;;;;;;5.44;100.00;100926.37;108002;1288;21989;-69
2023/12/09 05:36:09;;;;;;;17.50;8.10;;;;;;;5.43;100.00;100924.61;108049;1288;21989;-62
2023/12/09 05:38:35;;;;;;;13.40;7.40;;;;;;;5.44;100.00;100929.33;107989;1288;22780;-62
2023/12/09 05:41:01;;;;;;;14.10;8.00;;;;;;;5.46;100.00;100933.02;108023;1288;22001;-69
2023/12/09 05:43:26;;;;;;;14.00;8.70;;;;;;;5.49;100.00;100933.26;108022;1277;22039;-70
2023/12/09 05:45:52;;;;;;;12.80;7.50;;;;;;;5.49;100.00;100934.98;108071;1288;21999;-62
2023/12/09 05:48:21;;;;;;;13.30;7.70;;;;;;;5.48;100.00;100936.54;108021;1277;21993;-62
2023/12/09 05:50:46;;;;;;;12.20;7.90;;;;;;;5.45;100.00;100931.42;107991;1288;21993;-69
2023/12/09 05:53:12;;;;;;;12.10;7.90;;;;;;;5.43;100.00;100930.52;108036;1286;22014;-70
2023/12/09 05:55:38;;;;;;;11.70;7.20;;;;;;;5.43;100.00;100930.35;108010;1288;22074;-62
2023/12/09 05:58:03;;;;;;;12.70;7.50;;;;;;;5.40;100.00;100926.64;108051;1288;21988;-69
2023/12/09 06:00:29;;;;;;;12.90;7.60;;;;;;;5.36;100.00;100925.00;107296;1286;1002428;-65
2023/12/09 06:02:55;;;;;;;14.40;7.20;;;;;;;5.35;100.00;100926.19;108085;1288;23675;-70
2023/12/09 06:05:21;;;;;;;11.00;7.20;;;;;;;5.34;100.00;100931.58;108063;1277;24334;-70
2023/12/09 06:07:46;;;;;;;13.50;7.90;;;;;;;5.36;100.00;100934.92;108020;1288;21990;-69
2023/12/09 06:10:12;;;;;;;12.40;7.50;;;;;;;5.44;100.00;100945.50;108061;1288;22001;-69
2023/12/09 06:12:38;;;;;;;13.50;7.80;;;;;;;5.51;100.00;100947.02;108016;1288;22003;-62
2023/12/09 06:15:05;;;;;;;13.50;8.80;;;;;;;5.56;100.00;100950.59;108022;1288;22012;-61
2023/12/09 06:17:30;;;;;;;12.20;7.30;;;;;;;5.61;100.00;100955.02;107303;1288;1002896;-62
2023/12/09 06:19:56;;;;;;;15.10;8.40;;;;;;;5.64;100.00;100958.23;108030;1288;21990;-62
2023/12/09 06:22:22;;;;;;;11.90;7.20;;;;;;;5.63;100.00;100958.20;107996;1283;22315;-63
2023/12/09 06:24:48;;;;;;;12.00;7.30;;;;;;;5.68;100.00;100951.84;107996;1288;21987;-63
2023/12/09 06:27:13;;;;;;;13.50;7.30;;;;;;;5.71;100.00;100948.59;108034;1283;22044;-61
2023/12/09 06:29:39;;;;;;;12.30;7.30;;;;;;;5.74;100.00;100945.15;108011;1288;24063;-70
2023/12/09 06:32:05;;;;;;;9.80;6.50;;;;;;;5.73;100.00;100951.06;108031;1288;23179;-69
2023/12/09 06:34:30;;;;;;;12.30;7.20;;;;;;;5.72;100.00;100955.77;108019;1288;23665;-62
2023/12/09 06:36:56;;;;;;;12.20;6.80;;;;;;;5.72;100.00;100959.05;108007;1287;21997;-62
2023/12/09 06:39:22;;;;;;;13.70;8.60;;;;;;;5.72;100.00;100958.17;108022;1288;21995;-62
2023/12/09 06:41:48;;;;;;;15.10;8.30;;;;;;;5.70;100.00;100958.84;107878;1288;22158;-67
2023/12/09 06:44:14;;;;;;;11.50;7.20;;;;;;;5.68;100.00;100961.94;108021;1288;21989;-63
2023/12/09 06:46:40;;;;;;;10.90;7.20;;;;;;;5.64;100.00;100958.56;108011;1277;21990;-61
2023/12/09 06:49:07;;;;;;;11.40;7.00;;;;;;;5.61;100.00;100959.55;108044;1283;21992;-71
2023/12/09 06:51:32;;;;;;;12.70;7.80;;;;;;;5.64;100.00;100965.20;108021;1288;22007;-69
2023/12/09 06:54:00;;;;;;;14.20;7.90;;;;;;;5.66;100.00;100965.57;108059;1277;22005;-62
2023/12/09 06:56:25;;;;;;;11.70;7.90;;;;;;;5.66;100.00;100964.69;108030;1288;23658;-62
2023/12/09 06:58:52;;;;;;;14.20;8.10;;;;;;;5.66;100.00;100964.36;108065;1286;21993;-71
2023/12/09 07:01:22;;;;;;;13.70;8.10;;;;;;;5.66;100.00;100967.66;108006;1277;24451;-72
2023/12/09 07:03:48;;;;;;;15.10;8.60;;;;;;;5.69;100.00;100962.84;108105;1288;21991;-62
2023/12/09 07:06:24;;;;;;;10.30;6.90;;;;;;;5.75;100.00;100962.76;108011;1288;22001;-62
2023/12/09 07:08:50;;;;;;;13.00;7.70;;;;;;;5.77;100.00;100957.05;108008;1288;23671;-70
2023/12/09 07:11:17;;;;;;;10.80;7.30;;;;;;;5.77;100.00;100957.91;108044;1286;23607;-62
2023/12/09 07:13:43;;;;;;;13.30;8.10;;;;;;;5.75;100.00;100956.48;108083;1288;22470;-68
2023/12/09 07:16:10;;;;;;;14.50;8.70;;;;;;;5.75;100.00;100962.05;107271;1277;1002406;-70
2023/12/09 07:18:43;;;;;;;13.10;6.80;;;;;;;5.72;100.00;100966.36;108001;1286;22003;-69
2023/12/09 07:21:09;;;;;;;10.10;6.40;;;;;;;5.70;100.00;100969.65;108093;1288;21991;-62
2023/12/09 07:23:35;;;;;;;13.80;7.90;;;;;;;5.72;100.00;100967.77;108062;1288;21988;-72
2023/12/09 07:26:01;;;;;;;12.10;7.30;;;;;;;5.72;100.00;100964.11;108053;1288;21993;-62
2023/12/09 07:28:28;;;;;;;14.70;8.10;;;;;;;5.70;100.00;100966.15;108059;1288;22005;-72
2023/12/09 07:30:55;;;;;;;15.00;8.00;;;;;;;5.68;100.00;100966.98;107885;1280;21997;-71
2023/12/09 07:33:21;;;;;;;12.90;7.70;;;;;;;5.67;100.00;100966.98;107940;1288;22000;-73
2023/12/09 07:35:46;;;;;;;10.50;7.00;;;;;;;5.70;100.00;100964.60;107918;1288;21994;-71
2023/12/09 07:38:12;;;;;;;12.80;7.60;;;;;;;5.76;100.00;100964.52;108048;1288;23220;-62
2023/12/09 07:40:37;;;;;;;29.70;14.80;;;;;;;5.80;100.00;100956.40;108048;1277;22085;-69
2023/12/09 07:43:04;;;;;;;83.10;33.90;;;;;;;5.81;100.00;100950.31;108056;1277;21997;-63
2023/12/09 07:45:30;;;;;;;36.50;18.20;;;;;;;5.81;100.00;100949.10;108068;1288;23640;-72
2023/12/09 07:47:55;;;;;;;38.90;26.90;;;;;;;5.81;100.00;100950.14;108027;1288;21999;-63
2023/12/09 07:50:21;;;;;;;19.10;13.10;;;;;;;5.80;100.00;100950.64;108033;1288;24541;-70
2023/12/09 07:52:47;;;;;;;19.00;10.80;;;;;;;5.79;100.00;100952.21;108031;1283;21998;-63
2023/12/09 07:55:15;;;;;;;17.90;11.10;;;;;;;5.82;100.00;100957.13;107997;1288;21993;-70
2023/12/09 07:57:41;;;;;;;13.90;9.40;;;;;;;5.83;100.00;100954.86;108040;1283;21993;-71
2023/12/09 08:00:08;;;;;;;16.50;9.70;;;;;;;5.80;100.00;100949.60;108048;1277;23729;-63
2023/12/09 08:02:34;;;;;;;16.30;9.00;;;;;;;5.84;100.00;100948.95;107877;1288;21989;-64
2023/12/09 08:05:03;;;;;;;21.30;9.20;;;;;;;5.85;100.00;100949.15;108012;1283;22030;-70
2023/12/09 08:07:29;;;;;;;14.30;7.90;;;;;;;5.85;100.00;100948.28;108072;1288;23839;-72
2023/12/09 08:09:55;;;;;;;14.20;8.90;;;;;;;5.84;100.00;100942.89;107853;1288;22787;-71
2023/12/09 08:12:20;;;;;;;12.50;7.80;;;;;;;5.86;100.00;100936.12;107890;1288;22019;-64
2023/12/09 08:14:46;;;;;;;13.80;8.10;;;;;;;5.91;100.00;100927.30;108049;1288;22005;-64
2023/12/09 08:17:11;;;;;;;13.40;8.70;;;;;;;5.94;100.00;100921.27;107319;1288;1002330;-63
2023/12/09 08:19:37;;;;;;;16.90;10.10;;;;;;;5.94;100.00;100918.48;107306;1283;1002361;-72
2023/12/09 08:22:02;;;;;;;16.50;10.20;;;;;;;5.91;100.00;100920.52;108059;1277;21986;-64
2023/12/09 08:24:28;;;;;;;15.90;9.30;;;;;;;5.90;100.00;100915.98;108002;1280;21987;-69
2023/12/09 08:26:55;;;;;;;14.30;9.90;;;;;;;5.90;100.00;100908.84;108013;1288;22103;-72
2023/12/09 08:29:21;;;;;;;15.70;9.90;;;;;;;5.91;100.00;100906.58;108083;1283;22075;-72
2023/12/09 08:31:49;;;;;;;20.10;11.60;;;;;;;5.91;100.00;100896.31;108076;1276;22003;-66
2023/12/09 08:34:17;;;;;;;17.30;10.80;;;;;;;5.90;100.00;100892.29;108033;1283;21989;-63
2023/12/09 08:36:43;;;;;;;15.00;9.80;;;;;;;5.91;100.00;100882.89;108022;1283;22000;-63
2023/12/09 08:39:11;;;;;;;15.70;10.10;;;;;;;5.89;100.00;100879.21;107982;1288;22046;-74
2023/12/09 08:41:40;;;;;;;17.00;10.20;;;;;;;5.85;100.00;100872.88;108027;1283;21961;-63
2023/12/09 08:44:06;;;;;;;16.80;10.00;;;;;;;5.84;100.00;100865.03;108010;1283;22006;-63
2023/12/09 08:46:32;;;;;;;18.10;11.50;;;;;;;5.82;100.00;100864.11;108056;1288;22011;-68
2023/12/09 08:48:57;;;;;;;19.20;10.60;;;;;;;5.77;100.00;100862.47;108040;1288;21989;-63
2023/12/09 08:51:23;;;;;;;17.70;10.80;;;;;;;5.78;100.00;100864.23;107999;1286;23800;-76
2023/12/09 08:53:49;;;;;;;16.50;10.00;;;;;;;5.80;100.00;100857.66;107865;1288;21990;-76
2023/12/09 08:56:15;;;;;;;16.50;10.70;;;;;;;5.79;100.00;100858.85;108009;1288;22064;-64
2023/12/09 08:58:43;;;;;;;18.50;11.10;;;;;;;5.81;100.00;100860.63;108025;1277;24018;-63
2023/12/09 09:01:09;;;;;;;16.80;10.90;;;;;;;5.82;100.00;100860.99;108075;1288;22019;-62
2023/12/09 09:03:35;;;;;;;15.80;10.10;;;;;;;5.82;100.00;100858.73;107979;1288;21990;-62
2023/12/09 09:06:00;;;;;;;18.60;11.60;;;;;;;5.82;100.00;100862.55;108017;1288;21985;-75
2023/12/09 09:08:26;;;;;;;15.70;10.40;;;;;;;5.81;100.00;100870.21;107858;1286;23068;-63
2023/12/09 09:10:52;;;;;;;16.70;10.10;;;;;;;5.84;100.00;100881.56;108002;1288;22056;-62
2023/12/09 09:13:18;;;;;;;16.30;9.70;;;;;;;5.86;100.00;100874.96;107884;1283;23634;-73
2023/12/09 09:15:43;;;;;;;17.20;10.30;;;;;;;5.87;100.00;100872.22;108001;1288;21993;-63
2023/12/09 09:18:09;;;;;;;17.00;11.20;;;;;;;5.89;100.00;100867.54;108094;1277;23806;-63
2023/12/09 09:20:35;;;;;;;16.40;10.80;;;;;;;5.86;100.00;100863.15;107974;1284;21992;-64
2023/12/09 09:23:01;;;;;;;17.60;10.20;;;;;;;5.86;100.00;100861.91;108079;1277;21991;-63
2023/12/09 09:25:26;;;;;;;16.90;10.30;;;;;;;5.86;100.00;100869.74;107349;1275;1002448;-76
2023/12/09 09:27:52;;;;;;;25.60;14.50;;;;;;;5.83;100.00;100873.90;108077;1288;21990;-70
2023/12/09 09:30:22;;;;;;;167.00;96.00;;;;;;;5.81;100.00;100877.52;108032;1288;21997;-62
2023/12/09 09:32:48;;;;;;;27.20;16.80;;;;;;;5.81;100.00;100879.43;107771;1288;316748;-63
2023/12/09 09:35:14;;;;;;;20.10;11.60;;;;;;;5.82;100.00;100883.63;108030;1288;21970;-75
2023/12/09 09:37:40;;;;;;;20.90;10.80;;;;;;;5.85;100.00;100887.33;107920;1280;23640;-63
2023/12/09 09:40:06;;;;;;;17.80;12.90;;;;;;;5.86;100.00;100882.98;108015;1288;21989;-63
2023/12/09 09:42:32;;;;;;;19.50;11.90;;;;;;;5.86;100.00;100879.51;108037;1288;22022;-76
2023/12/09 09:45:20;;;;;;;16.50;10.00;;;;;;;5.83;100.00;100882.95;108005;1288;21986;-76
2023/12/09 09:47:47;;;;;;;15.20;9.50;;;;;;;5.83;100.00;100885.04;108016;1277;22003;-75
2023/12/09 09:50:13;;;;;;;16.30;10.00;;;;;;;5.85;100.00;100881.06;108048;1286;21990;-63
2023/12/09 09:52:40;;;;;;;15.70;9.60;;;;;;;5.86;100.00;100879.86;107891;1288;22460;-63
2023/12/09 09:55:06;;;;;;;17.00;9.90;;;;;;;5.85;100.00;100875.14;108010;1286;21988;-74
2023/12/09 09:57:35;;;;;;;20.70;11.20;;;;;;;5.83;100.00;100871.27;108024;1288;21990;-73
2023/12/09 10:00:01;;;;;;;17.60;11.50;;;;;;;5.83;100.00;100867.95;108041;1288;23154;-73
2023/12/09 10:02:27;;;;;;;52.10;30.30;;;;;;;5.85;100.00;100862.95;107983;1288;21988;-74
2023/12/09 10:04:53;;;;;;;22.60;14.20;;;;;;;5.85;100.00;100864.34;106549;1287;1003679;-63
2023/12/09 10:07:20;;;;;;;24.00;14.10;;;;;;;5.89;100.00;100861.79;108053;1288;21998;-74
2023/12/09 10:09:46;;;;;;;19.30;13.40;;;;;;;5.91;100.00;100862.51;108086;1277;21993;-63
2023/12/09 10:12:12;;;;;;;17.80;12.70;;;;;;;5.93;100.00;100862.36;108049;1280;23625;-72
2023/12/09 10:14:37;;;;;;;16.90;10.30;;;;;;;5.94;100.00;100862.73;107866;1283;23193;-63
2023/12/09 10:17:03;;;;;;;16.70;10.70;;;;;;;5.96;100.00;100865.89;107841;1288;21984;-63
2023/12/09 10:19:29;;;;;;;18.50;10.70;;;;;;;6.00;100.00;100869.80;107989;1288;21948;-69
2023/12/09 10:21:54;;;;;;;15.40;9.70;;;;;;;6.02;100.00;100866.52;107991;1283;21991;-63
2023/12/09 10:24:20;;;;;;;14.90;10.10;;;;;;;6.02;100.00;100871.41;108011;1288;22063;-63
2023/12/09 10:26:46;;;;;;;17.00;11.40;;;;;;;6.04;100.00;100870.21;107990;1288;22024;-71
2023/12/09 10:29:12;;;;;;;18.10;10.40;;;;;;;6.05;100.00;100861.34;108037;1282;21992;-70
2023/12/09 10:31:37;;;;;;;17.00;10.80;;;;;;;6.06;100.00;100856.14;107988;1288;21991;-70
2023/12/09 10:34:03;;;;;;;29.90;15.70;;;;;;;6.10;100.00;100858.64;108035;1288;22044;-64
2023/12/09 10:36:29;;;;;;;26.10;12.60;;;;;;;6.11;100.00;100852.39;108077;1288;23643;-77
2023/12/09 10:38:58;;;;;;;23.40;13.30;;;;;;;6.14;100.00;100847.53;108032;1288;21988;-67
2023/12/09 10:41:25;;;;;;;30.50;16.00;;;;;;;6.15;99.96;100845.10;108030;1277;22027;-63
2023/12/09 10:43:56;;;;;;;26.90;13.60;;;;;;;6.15;99.96;100842.85;107282;1288;1002706;-63
2023/12/09 10:46:22;;;;;;;20.50;12.00;;;;;;;6.16;99.84;100837.64;108065;1283;21991;-76
2023/12/09 10:48:48;;;;;;;22.30;11.30;;;;;;;6.16;99.68;100841.11;108015;1280;23753;-77
2023/12/09 10:51:17;;;;;;;17.40;9.20;;;;;;;6.16;99.78;100837.81;107876;1288;21990;-78
2023/12/09 10:53:43;;;;;;;16.20;10.60;;;;;;;6.19;99.94;100832.78;108075;1277;21992;-77
2023/12/09 10:56:09;;;;;;;13.00;8.60;;;;;;;6.21;99.76;100832.81;107980;1286;21997;-78
2023/12/09 10:58:36;;;;;;;14.90;10.10;;;;;;;6.22;99.66;100826.38;107912;1283;21992;-76
2023/12/09 11:01:01;;;;;;;18.20;11.20;;;;;;;6.20;99.30;100825.31;107890;1281;21990;-79